Time;durP1;ratioP1;P1;durP2;ratioP2;P2;SDS_P1;SDS_P2;PMS_P1;PMS_P2;Temp;Humidity;BMP_temperature;BMP_pressure;BME280_temperature;BME280_humidity;BME280_pressure;Samples;Min_cycle;Max_cycle;Signal;HPM_P1;HPM_P2
2021/05/04 00:00:30;;;;;;;1.51;1.41;;;;;;;19.55;43.84;99991.34;;;;-51
2021/05/04 00:03:30;;;;;;;1.83;1.53;;;;;;;19.55;43.87;99985.39;;;;-51
2021/05/04 00:06:30;;;;;;;1.60;1.50;;;;;;;19.54;43.83;99982.56;;;;-52
2021/05/04 00:09:30;;;;;;;1.75;1.65;;;;;;;19.52;43.86;99975.00;;;;-52
2021/05/04 00:12:30;;;;;;;1.63;1.53;;;;;;;19.51;43.88;99968.44;;;;-52
2021/05/04 00:15:30;;;;;;;1.56;1.46;;;;;;;19.50;43.85;99966.71;;;;-52
2021/05/04 00:18:30;;;;;;;1.89;1.72;;;;;;;19.49;43.85;99964.45;;;;-52
2021/05/04 00:21:30;;;;;;;1.56;1.46;;;;;;;19.47;43.86;99962.34;;;;-52
2021/05/04 00:24:30;;;;;;;1.73;1.62;;;;;;;19.46;43.90;99953.25;;;;-52
2021/05/04 00:27:30;;;;;;;1.69;1.58;;;;;;;19.46;43.87;99952.58;;;;-52
2021/05/04 00:30:30;;;;;;;1.60;1.50;;;;;;;19.45;43.87;99952.42;;;;-52
2021/05/04 00:33:30;;;;;;;1.50;1.40;;;;;;;19.43;43.89;99946.73;;;;-52
2021/05/04 00:36:30;;;;;;;1.92;1.50;;;;;;;19.43;43.87;99942.84;;;;-52
2021/05/04 00:39:36;;;;;;;1.60;1.50;;;;;;;19.41;43.89;99936.34;;;;-52
2021/05/04 00:42:30;;;;;;;1.63;1.53;;;;;;;19.41;43.91;99934.00;;;;-52
2021/05/04 00:45:30;;;;;;;1.60;1.50;;;;;;;19.40;43.86;99935.11;;;;-52
2021/05/04 00:48:30;;;;;;;1.70;1.60;;;;;;;19.39;43.91;99927.74;;;;-52
2021/05/04 00:51:30;;;;;;;1.60;1.50;;;;;;;19.37;43.89;99920.59;;;;-52
2021/05/04 00:54:30;;;;;;;1.52;1.42;;;;;;;19.37;43.92;99921.24;;;;-54
2021/05/04 00:57:30;;;;;;;1.61;1.51;;;;;;;19.35;43.94;99911.24;;;;-54
2021/05/04 01:00:30;;;;;;;1.60;1.50;;;;;;;19.35;43.93;99908.73;;;;-54
2021/05/04 01:03:30;;;;;;;1.70;1.57;;;;;;;19.33;43.91;99895.89;;;;-54
2021/05/04 01:06:30;;;;;;;1.52;1.42;;;;;;;19.33;43.91;99885.66;;;;-55
2021/05/04 01:09:30;;;;;;;1.60;1.50;;;;;;;19.31;43.88;99871.77;;;;-55
2021/05/04 01:12:30;;;;;;;1.67;1.57;;;;;;;19.31;43.92;99866.08;;;;-54
2021/05/04 01:15:30;;;;;;;1.51;1.41;;;;;;;19.30;43.89;99858.11;;;;-54
2021/05/04 01:18:30;;;;;;;1.70;1.60;;;;;;;19.28;43.91;99857.41;;;;-54
2021/05/04 01:21:30;;;;;;;1.59;1.49;;;;;;;19.28;43.93;99850.59;;;;-54
2021/05/04 01:24:30;;;;;;;1.57;1.47;;;;;;;19.26;43.92;99853.19;;;;-54
2021/05/04 01:27:30;;;;;;;1.79;1.60;;;;;;;19.26;43.87;99849.70;;;;-54
2021/05/04 01:30:30;;;;;;;1.87;1.60;;;;;;;19.25;43.93;99841.48;;;;-51
2021/05/04 01:33:30;;;;;;;2.29;1.61;;;;;;;19.24;43.93;99832.08;;;;-52
2021/05/04 01:36:30;;;;;;;1.69;1.59;;;;;;;19.24;43.93;99832.00;;;;-51
2021/05/04 01:39:30;;;;;;;1.60;1.50;;;;;;;19.22;43.93;99824.85;;;;-51
2021/05/04 01:42:30;;;;;;;1.57;1.47;;;;;;;19.22;43.94;99823.47;;;;-51
2021/05/04 01:45:30;;;;;;;1.69;1.59;;;;;;;19.21;43.94;99823.06;;;;-51
2021/05/04 01:48:30;;;;;;;1.55;1.45;;;;;;;19.21;43.92;99818.09;;;;-51
2021/05/04 01:51:30;;;;;;;1.56;1.46;;;;;;;19.20;43.94;99818.92;;;;-51
2021/05/04 01:54:30;;;;;;;1.60;1.50;;;;;;;19.19;43.96;99818.50;;;;-51
2021/05/04 01:57:30;;;;;;;1.65;1.55;;;;;;;19.17;43.93;99809.27;;;;-52
2021/05/04 02:00:30;;;;;;;1.70;1.60;;;;;;;19.17;43.96;99806.67;;;;-51
2021/05/04 02:03:30;;;;;;;1.69;1.59;;;;;;;19.17;43.94;99802.02;;;;-51
2021/05/04 02:06:30;;;;;;;1.60;1.50;;;;;;;19.15;43.92;99793.09;;;;-52
2021/05/04 02:09:30;;;;;;;1.70;1.60;;;;;;;19.16;43.92;99789.21;;;;-51
2021/05/04 02:12:30;;;;;;;1.61;1.51;;;;;;;19.14;43.93;99787.92;;;;-52
2021/05/04 02:15:30;;;;;;;1.60;1.50;;;;;;;19.14;43.96;99781.59;;;;-52
2021/05/04 02:18:30;;;;;;;1.50;1.40;;;;;;;19.13;43.93;99774.66;;;;-52
2021/05/04 02:21:30;;;;;;;1.60;1.50;;;;;;;19.12;43.94;99764.28;;;;-51
2021/05/04 02:24:30;;;;;;;1.66;1.50;;;;;;;19.11;43.93;99762.56;;;;-52
2021/05/04 02:27:30;;;;;;;1.60;1.50;;;;;;;19.11;43.95;99757.70;;;;-51
2021/05/04 02:30:30;;;;;;;1.60;1.50;;;;;;;19.10;43.97;99751.55;;;;-51
2021/05/04 02:33:30;;;;;;;1.40;1.30;;;;;;;19.10;43.92;99748.14;;;;-52
2021/05/04 02:36:30;;;;;;;1.60;1.50;;;;;;;19.08;43.93;99737.89;;;;-51
2021/05/04 02:39:30;;;;;;;1.47;1.37;;;;;;;19.08;43.95;99732.06;;;;-51
2021/05/04 02:42:30;;;;;;;1.53;1.43;;;;;;;19.07;43.94;99728.39;;;;-51
2021/05/04 02:45:30;;;;;;;1.50;1.40;;;;;;;19.07;43.96;99723.36;;;;-52
2021/05/04 02:48:33;;;;;;;1.70;1.60;;;;;;;19.05;43.96;99712.42;;;;-54
2021/05/04 02:51:30;;;;;;;1.55;1.45;;;;;;;19.05;43.94;99712.08;;;;-54
2021/05/04 02:54:30;;;;;;;1.41;1.31;;;;;;;19.04;43.98;99699.83;;;;-54
2021/05/04 02:57:30;;;;;;;1.48;1.38;;;;;;;19.04;43.99;99698.05;;;;-54
2021/05/04 03:00:30;;;;;;;1.40;1.30;;;;;;;19.04;43.96;99691.72;;;;-55
2021/05/04 03:03:30;;;;;;;1.50;1.40;;;;;;;19.03;43.99;99683.91;;;;-54
2021/05/04 03:06:30;;;;;;;1.61;1.51;;;;;;;19.01;43.99;99669.73;;;;-53
2021/05/04 03:09:30;;;;;;;1.51;1.41;;;;;;;19.01;43.99;99661.12;;;;-54
2021/05/04 03:12:30;;;;;;;1.60;1.50;;;;;;;19.00;44.01;99663.55;;;;-54
2021/05/04 03:15:30;;;;;;;1.58;1.48;;;;;;;19.00;43.98;99659.41;;;;-54
2021/05/04 03:18:30;;;;;;;1.58;1.48;;;;;;;19.00;44.00;99655.92;;;;-52
2021/05/04 03:21:30;;;;;;;1.60;1.50;;;;;;;18.99;43.97;99646.44;;;;-52
2021/05/04 03:24:30;;;;;;;1.61;1.51;;;;;;;18.98;43.99;99643.91;;;;-52
2021/05/04 03:27:30;;;;;;;1.57;1.47;;;;;;;18.97;43.99;99641.09;;;;-51
2021/05/04 03:30:30;;;;;;;1.54;1.44;;;;;;;18.96;43.99;99635.14;;;;-52
2021/05/04 03:33:30;;;;;;;1.50;1.40;;;;;;;18.96;43.99;99632.95;;;;-54
2021/05/04 03:36:30;;;;;;;1.43;1.33;;;;;;;18.95;44.00;99623.64;;;;-54
2021/05/04 03:39:30;;;;;;;1.37;1.27;;;;;;;18.94;44.00;99622.41;;;;-54
2021/05/04 03:42:30;;;;;;;1.47;1.37;;;;;;;18.94;44.02;99614.21;;;;-48
2021/05/04 03:45:30;;;;;;;1.43;1.33;;;;;;;18.94;44.01;99614.06;;;;-48
2021/05/04 03:48:30;;;;;;;1.52;1.42;;;;;;;18.94;44.00;99603.58;;;;-48
2021/05/04 03:51:30;;;;;;;1.53;1.43;;;;;;;18.92;44.00;99600.01;;;;-55
2021/05/04 03:54:30;;;;;;;1.51;1.41;;;;;;;18.93;44.02;99592.48;;;;-54
2021/05/04 03:57:30;;;;;;;1.46;1.36;;;;;;;18.91;44.04;99591.26;;;;-54
2021/05/04 04:00:30;;;;;;;1.47;1.37;;;;;;;18.91;44.02;99585.84;;;;-51
2021/05/04 04:03:30;;;;;;;2.13;1.49;;;;;;;18.90;44.02;99582.31;;;;-51
2021/05/04 04:06:30;;;;;;;1.55;1.45;;;;;;;18.90;44.07;99583.39;;;;-54
2021/05/04 04:09:30;;;;;;;1.40;1.30;;;;;;;18.89;44.07;99583.73;;;;-55
2021/05/04 04:12:30;;;;;;;1.40;1.30;;;;;;;18.89;44.05;99580.72;;;;-53
2021/05/04 04:15:30;;;;;;;1.57;1.47;;;;;;;18.88;44.04;99575.62;;;;-51
2021/05/04 04:18:30;;;;;;;1.40;1.30;;;;;;;18.88;44.03;99574.78;;;;-52
2021/05/04 04:21:30;;;;;;;1.40;1.30;;;;;;;18.87;44.06;99566.84;;;;-51
2021/05/04 04:24:30;;;;;;;1.73;1.40;;;;;;;18.87;44.05;99565.96;;;;-52
2021/05/04 04:27:30;;;;;;;1.55;1.45;;;;;;;18.86;44.04;99558.08;;;;-51
2021/05/04 04:30:30;;;;;;;1.51;1.41;;;;;;;18.86;44.06;99552.90;;;;-51
2021/05/04 04:33:30;;;;;;;1.49;1.39;;;;;;;18.86;44.05;99554.27;;;;-51
2021/05/04 04:36:30;;;;;;;1.40;1.30;;;;;;;18.85;44.07;99552.48;;;;-51
2021/05/04 04:39:30;;;;;;;1.40;1.30;;;;;;;18.85;44.09;99548.60;;;;-51
2021/05/04 04:42:30;;;;;;;1.44;1.34;;;;;;;18.84;44.07;99546.97;;;;-51
2021/05/04 04:45:30;;;;;;;1.53;1.43;;;;;;;18.83;44.09;99539.35;;;;-51
2021/05/04 04:48:30;;;;;;;1.61;1.51;;;;;;;18.83;44.11;99535.70;;;;-51
2021/05/04 04:51:30;;;;;;;1.42;1.32;;;;;;;18.83;44.10;99540.17;;;;-51
2021/05/04 04:54:32;;;;;;;1.34;1.25;;;;;;;18.82;44.07;99522.70;;;;-51
2021/05/04 04:57:30;;;;;;;1.54;1.44;;;;;;;18.82;44.08;99527.02;;;;-52
2021/05/04 05:00:30;;;;;;;1.36;1.29;;;;;;;18.81;44.10;99525.80;;;;-51
2021/05/04 05:03:30;;;;;;;1.60;1.50;;;;;;;18.80;44.10;99519.33;;;;-51
2021/05/04 05:06:30;;;;;;;1.42;1.32;;;;;;;18.81;44.07;99531.09;;;;-51
2021/05/04 05:09:30;;;;;;;1.51;1.41;;;;;;;18.80;44.09;99525.66;;;;-51
2021/05/04 05:12:30;;;;;;;1.49;1.39;;;;;;;18.79;44.12;99516.97;;;;-51
2021/05/04 05:15:36;;;;;;;1.30;1.20;;;;;;;18.79;44.11;99518.84;;;;-51
2021/05/04 05:18:30;;;;;;;1.39;1.29;;;;;;;18.79;44.10;99515.75;;;;-52
2021/05/04 05:21:30;;;;;;;1.59;1.49;;;;;;;18.79;44.10;99511.13;;;;-51
2021/05/04 05:24:30;;;;;;;1.50;1.40;;;;;;;18.79;44.07;99514.45;;;;-51
2021/05/04 05:27:33;;;;;;;1.32;1.22;;;;;;;18.81;44.09;99516.63;;;;-51
2021/05/04 05:30:30;;;;;;;1.29;1.20;;;;;;;18.82;44.09;99514.84;;;;-51
2021/05/04 05:33:30;;;;;;;1.40;1.30;;;;;;;18.83;44.08;99510.37;;;;-51
2021/05/04 05:36:30;;;;;;;1.43;1.33;;;;;;;18.85;44.07;99508.74;;;;-52
2021/05/04 05:39:30;;;;;;;1.44;1.34;;;;;;;18.86;44.10;99509.53;;;;-50
2021/05/04 05:42:30;;;;;;;1.49;1.39;;;;;;;18.88;44.09;99512.63;;;;-51
2021/05/04 05:45:30;;;;;;;1.41;1.31;;;;;;;18.92;44.10;99510.39;;;;-51
2021/05/04 05:48:30;;;;;;;1.40;1.30;;;;;;;18.93;44.13;99506.81;;;;-51
2021/05/04 05:51:30;;;;;;;1.40;1.30;;;;;;;18.96;44.12;99503.63;;;;-51
2021/05/04 05:54:31;;;;;;;1.49;1.39;;;;;;;18.97;44.10;99509.88;;;;-51
2021/05/04 05:57:30;;;;;;;1.26;1.21;;;;;;;19.00;44.14;99505.55;;;;-52
2021/05/04 06:00:30;;;;;;;1.40;1.30;;;;;;;19.02;44.15;99505.30;;;;-54
2021/05/04 06:03:30;;;;;;;1.40;1.30;;;;;;;19.04;44.17;99495.87;;;;-54
2021/05/04 06:06:30;;;;;;;1.27;1.20;;;;;;;19.05;44.16;99497.47;;;;-55
2021/05/04 06:09:30;;;;;;;1.41;1.31;;;;;;;19.06;44.14;99501.77;;;;-55
2021/05/04 06:12:30;;;;;;;1.38;1.28;;;;;;;19.08;44.14;99504.03;;;;-54
2021/05/04 06:15:30;;;;;;;3.91;1.51;;;;;;;19.08;43.92;99499.57;;;;-59
2021/05/04 06:18:30;;;;;;;1.95;1.62;;;;;;;18.98;42.88;99494.59;;;;-54
2021/05/04 06:21:30;;;;;;;3.06;1.69;;;;;;;18.90;42.13;99496.59;;;;-52
2021/05/04 06:24:30;;;;;;;7.90;1.81;;;;;;;18.95;42.85;99493.73;;;;-59
2021/05/04 06:27:30;;;;;;;7.01;1.70;;;;;;;19.01;43.50;99498.47;;;;-52
2021/05/04 06:30:33;;;;;;;3.01;1.62;;;;;;;19.05;43.53;99497.33;;;;-51
2021/05/04 06:33:30;;;;;;;2.11;1.75;;;;;;;19.09;43.59;99497.11;;;;-51
2021/05/04 06:36:30;;;;;;;1.61;1.50;;;;;;;19.11;43.58;99498.09;;;;-51
2021/05/04 06:39:30;;;;;;;3.91;1.69;;;;;;;19.14;43.75;99490.69;;;;-52
2021/05/04 06:42:30;;;;;;;3.26;1.49;;;;;;;19.15;43.62;99483.61;;;;-55
2021/05/04 06:45:30;;;;;;;1.99;1.59;;;;;;;19.17;43.76;99491.86;;;;-52
2021/05/04 06:48:30;;;;;;;1.73;1.52;;;;;;;19.19;43.69;99495.73;;;;-57
2021/05/04 06:51:30;;;;;;;2.67;1.46;;;;;;;19.18;43.66;99497.05;;;;-56
2021/05/04 06:54:30;;;;;;;2.33;1.60;;;;;;;19.20;43.67;99483.90;;;;-56
2021/05/04 06:57:30;;;;;;;3.15;1.63;;;;;;;19.19;43.65;99480.88;;;;-56
2021/05/04 07:00:30;;;;;;;2.16;1.49;;;;;;;19.20;43.65;99485.44;;;;-56
2021/05/04 07:03:30;;;;;;;3.18;1.50;;;;;;;19.20;43.64;99464.31;;;;-50
2021/05/04 07:06:30;;;;;;;1.66;1.49;;;;;;;19.20;43.67;99464.48;;;;-50
2021/05/04 07:09:30;;;;;;;1.70;1.46;;;;;;;19.20;43.64;99472.91;;;;-50
2021/05/04 07:12:30;;;;;;;2.63;1.48;;;;;;;19.20;43.65;99474.54;;;;-53
2021/05/04 07:15:30;;;;;;;1.59;1.49;;;;;;;19.21;43.64;99470.55;;;;-53
2021/05/04 07:18:30;;;;;;;2.65;1.60;;;;;;;19.20;43.58;99474.54;;;;-53
2021/05/04 07:21:30;;;;;;;1.79;1.53;;;;;;;19.20;43.64;99471.05;;;;-53
2021/05/04 07:24:29;;;;;;;1.56;1.39;;;;;;;19.21;43.60;99469.48;;;;-53
2021/05/04 07:27:30;;;;;;;1.52;1.39;;;;;;;19.21;43.61;99468.11;;;;-53
2021/05/04 07:30:32;;;;;;;1.67;1.49;;;;;;;19.21;43.60;99459.41;;;;-53
2021/05/04 07:33:30;;;;;;;1.47;1.37;;;;;;;19.21;43.59;99465.99;;;;-53
2021/05/04 07:36:31;;;;;;;2.47;1.50;;;;;;;19.21;43.65;99470.80;;;;-53
2021/05/04 07:39:30;;;;;;;1.75;1.50;;;;;;;19.20;43.64;99461.80;;;;-53
2021/05/04 07:42:30;;;;;;;2.47;1.54;;;;;;;19.20;43.61;99462.36;;;;-51
2021/05/04 07:45:30;;;;;;;2.13;1.48;;;;;;;19.20;43.58;99466.74;;;;-52
2021/05/04 07:48:30;;;;;;;1.33;1.23;;;;;;;19.20;43.65;99470.42;;;;-53
2021/05/04 07:51:30;;;;;;;1.50;1.40;;;;;;;19.20;43.60;99461.07;;;;-51
2021/05/04 07:54:31;;;;;;;1.50;1.40;;;;;;;19.19;43.61;99463.81;;;;-51
2021/05/04 07:57:30;;;;;;;1.96;1.40;;;;;;;19.19;43.64;99462.67;;;;-50
2021/05/04 08:00:30;;;;;;;2.43;1.45;;;;;;;19.18;43.74;99458.48;;;;-47
2021/05/04 08:03:30;;;;;;;3.67;1.41;;;;;;;19.20;43.83;99460.33;;;;-53
2021/05/04 08:06:30;;;;;;;1.51;1.41;;;;;;;19.20;43.98;99460.82;;;;-58
2021/05/04 08:09:30;;;;;;;1.47;1.37;;;;;;;19.21;44.07;99462.66;;;;-59
2021/05/04 08:12:29;;;;;;;1.50;1.40;;;;;;;19.22;44.03;99467.79;;;;-52
2021/05/04 08:15:30;;;;;;;2.04;1.49;;;;;;;19.22;44.10;99453.41;;;;-52
2021/05/04 08:18:30;;;;;;;1.75;1.43;;;;;;;19.23;44.06;99448.11;;;;-52
2021/05/04 08:21:33;;;;;;;1.55;1.45;;;;;;;19.23;44.17;99457.20;;;;-58
2021/05/04 08:24:30;;;;;;;2.87;1.49;;;;;;;19.24;44.10;99439.51;;;;-53
2021/05/04 08:27:30;;;;;;;2.77;1.40;;;;;;;19.24;44.11;99443.31;;;;-47
2021/05/04 08:30:30;;;;;;;1.71;1.41;;;;;;;19.24;44.08;99445.68;;;;-46
2021/05/04 08:33:30;;;;;;;2.99;1.60;;;;;;;19.25;44.17;99458.83;;;;-58
2021/05/04 08:36:30;;;;;;;1.53;1.41;;;;;;;19.25;44.25;99465.15;;;;-57
2021/05/04 08:39:30;;;;;;;3.76;1.38;;;;;;;19.28;44.17;99461.22;;;;-56
2021/05/04 08:42:30;;;;;;;2.89;1.44;;;;;;;19.29;44.32;99452.12;;;;-50
2021/05/04 08:45:29;;;;;;;3.69;1.48;;;;;;;19.34;44.43;99458.73;;;;-47
2021/05/04 08:48:30;;;;;;;4.49;1.43;;;;;;;19.37;44.49;99466.19;;;;-51
2021/05/04 08:51:30;;;;;;;3.43;1.39;;;;;;;19.40;44.60;99488.57;;;;-54
2021/05/04 08:54:30;;;;;;;3.39;1.46;;;;;;;19.44;44.66;99488.87;;;;-53
2021/05/04 08:57:30;;;;;;;2.68;1.47;;;;;;;19.47;44.75;99487.63;;;;-57
2021/05/04 09:00:29;;;;;;;2.36;1.37;;;;;;;19.51;44.84;99514.39;;;;-61
2021/05/04 09:03:34;;;;;;;1.50;1.40;;;;;;;19.52;44.84;99509.76;;;;-52
2021/05/04 09:06:30;;;;;;;3.12;1.49;;;;;;;19.55;44.75;99510.30;;;;-53
2021/05/04 09:09:33;;;;;;;2.18;1.43;;;;;;;19.58;44.92;99515.48;;;;-59
2021/05/04 09:12:30;;;;;;;1.43;1.33;;;;;;;19.62;44.94;99527.45;;;;-58
2021/05/04 09:15:37;;;;;;;2.55;1.34;;;;;;;19.63;44.63;99525.44;;;;-49
2021/05/04 09:18:35;;;;;;;1.89;1.37;;;;;;;19.67;45.05;99531.49;;;;-49
2021/05/04 09:21:30;;;;;;;1.49;1.37;;;;;;;19.69;44.94;99538.47;;;;-53
2021/05/04 09:24:31;;;;;;;2.33;1.40;;;;;;;19.71;44.73;99539.51;;;;-54
2021/05/04 09:27:30;;;;;;;1.41;1.31;;;;;;;19.75;44.77;99542.50;;;;-56
2021/05/04 09:30:30;;;;;;;5.87;1.75;;;;;;;19.74;44.29;99539.27;;;;-60
2021/05/04 09:33:30;;;;;;;5.21;1.60;;;;;;;19.76;44.03;99533.71;;;;-50
2021/05/04 09:36:30;;;;;;;4.83;1.46;;;;;;;19.76;43.75;99533.71;;;;-50
2021/05/04 09:39:30;;;;;;;3.08;1.50;;;;;;;19.77;43.97;99532.95;;;;-62
2021/05/04 09:42:30;;;;;;;3.85;1.47;;;;;;;19.79;44.10;99533.41;;;;-51
2021/05/04 09:45:30;;;;;;;2.84;1.40;;;;;;;19.81;44.00;99529.34;;;;-51
2021/05/04 09:48:30;;;;;;;2.29;1.43;;;;;;;19.82;44.38;99527.47;;;;-53
2021/05/04 09:51:30;;;;;;;1.51;1.41;;;;;;;19.85;44.44;99525.65;;;;-45
2021/05/04 09:54:31;;;;;;;2.67;1.40;;;;;;;19.88;44.64;99529.05;;;;-52
2021/05/04 09:57:30;;;;;;;2.82;1.51;;;;;;;19.89;44.60;99532.27;;;;-58
2021/05/04 10:00:30;;;;;;;2.33;1.53;;;;;;;19.92;44.29;99541.09;;;;-53
2021/05/04 10:03:30;;;;;;;3.45;1.47;;;;;;;19.93;44.34;99538.10;;;;-55
2021/05/04 10:06:30;;;;;;;3.76;1.44;;;;;;;19.94;44.27;99540.19;;;;-53
2021/05/04 10:09:29;;;;;;;1.97;1.38;;;;;;;19.95;44.32;99540.68;;;;-58
2021/05/04 10:12:30;;;;;;;2.77;1.39;;;;;;;19.95;44.46;99551.16;;;;-49
2021/05/04 10:15:30;;;;;;;2.23;1.40;;;;;;;19.98;44.59;99564.64;;;;-45
2021/05/04 10:18:30;;;;;;;1.65;1.50;;;;;;;19.98;44.36;99545.99;;;;-59
2021/05/04 10:21:30;;;;;;;1.65;1.39;;;;;;;19.98;44.01;99545.52;;;;-52
2021/05/04 10:24:30;;;;;;;1.86;1.46;;;;;;;19.98;44.36;99547.07;;;;-51
2021/05/04 10:27:30;;;;;;;1.49;1.39;;;;;;;19.99;44.64;99551.78;;;;-53
2021/05/04 10:30:30;;;;;;;4.57;1.47;;;;;;;20.00;44.52;99549.63;;;;-61
2021/05/04 10:33:29;;;;;;;2.48;1.35;;;;;;;20.02;44.53;99542.70;;;;-53
2021/05/04 10:36:30;;;;;;;1.89;1.39;;;;;;;20.02;44.57;99552.45;;;;-54
2021/05/04 10:39:30;;;;;;;1.63;1.40;;;;;;;20.03;44.41;99539.46;;;;-52
2021/05/04 10:42:30;;;;;;;2.43;1.29;;;;;;;20.04;44.35;99549.35;;;;-56
2021/05/04 10:45:30;;;;;;;2.31;1.30;;;;;;;20.05;44.30;99556.12;;;;-53
2021/05/04 10:48:29;;;;;;;3.22;1.40;;;;;;;20.06;44.29;99557.23;;;;-51
2021/05/04 10:51:30;;;;;;;3.25;1.41;;;;;;;20.06;44.47;99558.45;;;;-54
2021/05/04 10:54:30;;;;;;;1.65;1.19;;;;;;;20.06;44.40;99545.25;;;;-63
2021/05/04 10:57:29;;;;;;;3.27;1.34;;;;;;;20.08;44.47;99545.01;;;;-52
2021/05/04 11:00:30;;;;;;;1.66;1.23;;;;;;;20.09;44.18;99543.45;;;;-47
2021/05/04 11:03:29;;;;;;;3.09;1.47;;;;;;;20.08;44.07;99547.03;;;;-52
2021/05/04 11:06:30;;;;;;;2.23;1.29;;;;;;;20.07;44.03;99538.69;;;;-47
2021/05/04 11:09:30;;;;;;;2.27;1.32;;;;;;;20.06;43.97;99540.05;;;;-52
2021/05/04 11:12:30;;;;;;;1.55;1.20;;;;;;;20.06;43.88;99539.33;;;;-51
2021/05/04 11:15:31;;;;;;;2.33;1.39;;;;;;;20.06;43.89;99545.75;;;;-47
2021/05/04 11:18:29;;;;;;;1.54;1.30;;;;;;;20.05;43.81;99551.38;;;;-47
2021/05/04 11:21:30;;;;;;;1.57;1.30;;;;;;;20.04;43.78;99536.34;;;;-51
2021/05/04 11:24:29;;;;;;;3.15;1.41;;;;;;;20.03;43.75;99542.86;;;;-51
2021/05/04 11:27:31;;;;;;;1.41;1.27;;;;;;;20.04;43.71;99541.05;;;;-47
2021/05/04 11:30:30;;;;;;;1.33;1.23;;;;;;;20.04;43.70;99543.90;;;;-52
2021/05/04 11:33:30;;;;;;;1.62;1.30;;;;;;;20.04;43.71;99549.68;;;;-47
2021/05/04 11:36:30;;;;;;;1.25;1.20;;;;;;;20.03;43.71;99555.56;;;;-47
2021/05/04 11:39:29;;;;;;;1.53;1.31;;;;;;;20.03;43.66;99551.26;;;;-47
2021/05/04 11:42:30;;;;;;;1.49;1.30;;;;;;;20.02;43.66;99547.34;;;;-47
2021/05/04 11:45:30;;;;;;;1.57;1.39;;;;;;;20.02;43.61;99530.75;;;;-52
2021/05/04 11:48:31;;;;;;;1.86;1.31;;;;;;;20.02;43.63;99570.92;;;;-52
2021/05/04 11:51:30;;;;;;;1.39;1.29;;;;;;;20.02;43.60;99563.11;;;;-47
2021/05/04 11:54:30;;;;;;;1.96;1.36;;;;;;;20.02;43.60;99559.22;;;;-52
2021/05/04 11:57:30;;;;;;;1.36;1.26;;;;;;;20.01;43.55;99570.95;;;;-52
2021/05/04 12:00:30;;;;;;;1.27;1.20;;;;;;;20.00;43.55;99550.28;;;;-48
2021/05/04 12:03:31;;;;;;;1.37;1.25;;;;;;;20.00;43.55;99552.31;;;;-51
2021/05/04 12:06:30;;;;;;;1.64;1.29;;;;;;;20.01;43.57;99553.39;;;;-52
2021/05/04 12:09:30;;;;;;;1.81;1.29;;;;;;;20.00;43.49;99553.94;;;;-51
2021/05/04 12:12:29;;;;;;;1.29;1.19;;;;;;;20.00;43.54;99543.94;;;;-52
2021/05/04 12:15:30;;;;;;;1.33;1.12;;;;;;;19.99;43.58;99545.51;;;;-47
2021/05/04 12:18:29;;;;;;;1.98;1.28;;;;;;;19.99;43.54;99554.04;;;;-47
2021/05/04 12:21:29;;;;;;;1.52;1.30;;;;;;;20.00;43.54;99563.39;;;;-47
2021/05/04 12:24:30;;;;;;;1.20;1.10;;;;;;;19.99;43.54;99553.23;;;;-47
2021/05/04 12:27:30;;;;;;;2.29;1.17;;;;;;;19.99;43.48;99552.91;;;;-47
2021/05/04 12:30:30;;;;;;;2.09;1.33;;;;;;;19.99;43.55;99556.66;;;;-47
2021/05/04 12:33:29;;;;;;;1.33;1.23;;;;;;;19.99;43.52;99566.02;;;;-47
2021/05/04 12:36:29;;;;;;;1.20;1.10;;;;;;;19.99;43.51;99539.91;;;;-47
2021/05/04 12:39:31;;;;;;;1.29;1.19;;;;;;;19.99;43.46;99559.33;;;;-47
2021/05/04 12:42:30;;;;;;;1.23;1.13;;;;;;;20.00;43.50;99546.47;;;;-47
2021/05/04 12:45:30;;;;;;;2.05;1.12;;;;;;;19.99;43.48;99503.88;;;;-47
2021/05/04 12:48:29;;;;;;;1.33;1.23;;;;;;;19.98;43.47;99515.52;;;;-51
2021/05/04 12:51:29;;;;;;;1.30;1.20;;;;;;;19.99;43.50;99527.55;;;;-52
2021/05/04 12:54:30;;;;;;;1.31;1.17;;;;;;;19.98;43.46;99500.45;;;;-52
2021/05/04 12:57:31;;;;;;;1.41;1.20;;;;;;;19.97;43.49;99501.37;;;;-52
2021/05/04 13:00:30;;;;;;;1.45;1.20;;;;;;;19.98;43.46;99497.45;;;;-55
2021/05/04 13:03:29;;;;;;;2.69;1.30;;;;;;;19.97;43.37;99500.08;;;;-53
2021/05/04 13:06:32;;;;;;;1.77;1.42;;;;;;;19.95;43.16;99490.42;;;;-49
2021/05/04 13:09:50;;;;;;;1.78;1.42;;;;;;;19.95;43.16;99493.67;;;;-51
2021/05/04 13:12:39;;;;;;;2.24;1.23;;;;;;;19.95;43.07;99491.95;;;;-58
2021/05/04 13:16:03;;;;;;;1.40;1.30;;;;;;;19.96;42.88;99493.89;;;;-50
2021/05/04 13:21:56;;;;;;;1.70;1.27;;;;;;;19.98;43.10;99481.02;;;;-54
2021/05/04 13:28:34;;;;;;;1.64;1.39;;;;;;;20.01;43.32;99488.23;;;;-47
2021/05/04 13:31:30;;;;;;;1.40;1.30;;;;;;;20.02;43.45;99492.03;;;;-51
2021/05/04 13:34:37;;;;;;;1.52;1.40;;;;;;;20.04;43.78;99493.33;;;;-51
2021/05/04 13:37:38;;;;;;;2.13;1.30;;;;;;;20.05;43.44;99500.40;;;;-50
2021/05/04 13:48:29;;;;;;;3.14;1.31;;;;;;;20.12;43.21;99497.95;;;;-46
2021/05/04 13:51:29;;;;;;;1.40;1.20;;;;;;;20.14;43.06;99485.41;;;;-46
2021/05/04 13:54:30;;;;;;;9.24;1.64;;;;;;;20.22;44.05;99483.34;;;;-53
2021/05/04 13:57:32;;;;;;;5.41;1.47;;;;;;;20.29;44.40;99478.63;;;;-51
2021/05/04 14:00:36;;;;;;;4.27;1.43;;;;;;;20.34;44.13;99485.41;;;;-58
2021/05/04 14:03:47;;;;;;;3.28;1.46;;;;;;;20.35;44.11;99490.43;;;;-56
2021/05/04 14:06:38;;;;;;;6.04;1.49;;;;;;;20.36;44.29;99484.14;;;;-54
2021/05/04 14:10:03;;;;;;;3.81;1.51;;;;;;;20.37;43.96;99498.87;;;;-57
2021/05/04 14:25:07;;;;;;;3.71;1.50;;;;;;;20.39;44.24;99490.92;;;;-55
2021/05/04 14:27:32;;;;;;;3.02;1.30;;;;;;;20.40;44.18;99486.78;;;;-55
2021/05/04 14:30:30;;;;;;;2.49;1.31;;;;;;;20.42;44.25;99483.41;;;;-52
2021/05/04 14:33:29;;;;;;;2.27;1.30;;;;;;;20.41;44.27;99491.17;;;;-47
2021/05/04 14:41:47;;;;;;;1.79;1.21;;;;;;;20.42;44.19;99480.98;;;;-52
2021/05/04 14:44:46;;;;;;;2.44;1.31;;;;;;;20.42;43.95;99497.09;;;;-56
2021/05/04 14:47:47;;;;;;;2.69;1.22;;;;;;;20.43;44.30;99489.26;;;;-51
2021/05/04 14:57:37;;;;;;;4.57;1.41;;;;;;;20.39;43.58;99485.64;;;;-53
2021/05/04 15:00:42;;;;;;;2.11;1.23;;;;;;;20.37;43.61;99482.91;;;;-53
2021/05/04 15:03:30;;;;;;;2.49;1.30;;;;;;;20.37;43.57;99473.39;;;;-53
2021/05/04 15:06:30;;;;;;;2.39;1.49;;;;;;;20.36;43.55;99470.88;;;;-53
2021/05/04 15:09:29;;;;;;;3.35;1.31;;;;;;;20.35;43.87;99467.95;;;;-56
2021/05/04 15:12:30;;;;;;;2.90;1.55;;;;;;;20.35;44.15;99449.48;;;;-51
2021/05/04 15:15:37;;;;;;;3.37;1.33;;;;;;;20.36;44.14;99445.33;;;;-47
2021/05/04 15:23:29;;;;;;;5.22;1.35;;;;;;;20.38;44.20;99430.83;;;;-51
2021/05/04 15:26:29;;;;;;;3.47;1.31;;;;;;;20.39;44.35;99426.49;;;;-52
2021/05/04 15:29:30;;;;;;;1.50;1.19;;;;;;;20.39;44.45;99421.86;;;;-48
2021/05/04 15:32:32;;;;;;;1.51;1.26;;;;;;;20.39;44.35;99415.10;;;;-50
2021/05/04 15:35:29;;;;;;;1.69;1.26;;;;;;;20.41;44.37;99415.91;;;;-57
2021/05/04 15:38:30;;;;;;;2.84;1.25;;;;;;;20.41;44.38;99420.61;;;;-54
2021/05/04 15:41:29;;;;;;;3.54;1.25;;;;;;;20.42;44.33;99414.16;;;;-48
2021/05/04 15:44:29;;;;;;;4.02;1.20;;;;;;;20.43;44.45;99420.92;;;;-54
2021/05/04 15:47:36;;;;;;;1.46;1.17;;;;;;;20.43;44.50;99421.39;;;;-54
2021/05/04 15:50:38;;;;;;;1.53;1.20;;;;;;;20.44;44.57;99412.75;;;;-57
2021/05/04 15:53:50;;;;;;;1.45;1.21;;;;;;;20.44;44.48;99402.03;;;;-54
2021/05/04 16:02:41;;;;;;;1.47;1.27;;;;;;;20.47;44.75;99395.22;;;;-48
2021/05/04 16:08:31;;;;;;;1.45;1.10;;;;;;;20.48;44.92;99380.47;;;;-53
2021/05/04 16:11:30;;;;;;;1.76;1.20;;;;;;;20.48;44.96;99389.33;;;;-51
2021/05/04 16:14:30;;;;;;;1.59;1.20;;;;;;;20.49;45.17;99384.05;;;;-52
2021/05/04 16:17:29;;;;;;;1.59;1.01;;;;;;;20.51;45.18;99372.71;;;;-48
2021/05/04 16:20:53;;;;;;;1.29;1.14;;;;;;;20.51;45.21;99377.16;;;;-58
2021/05/04 16:23:33;;;;;;;1.89;1.10;;;;;;;20.51;45.26;99375.79;;;;-48
2021/05/04 16:27:32;;;;;;;1.27;1.17;;;;;;;20.52;45.08;99368.69;;;;-58
2021/05/04 16:30:30;;;;;;;2.47;1.20;;;;;;;20.52;45.08;99360.87;;;;-48
2021/05/04 16:33:29;;;;;;;2.63;1.30;;;;;;;20.53;45.15;99359.01;;;;-53
2021/05/04 16:36:30;;;;;;;1.84;1.26;;;;;;;20.53;45.10;99351.73;;;;-52
2021/05/04 16:39:29;;;;;;;2.81;1.30;;;;;;;20.52;44.50;99341.27;;;;-53
2021/05/04 16:42:29;;;;;;;1.91;1.10;;;;;;;20.51;44.28;99344.63;;;;-52
2021/05/04 16:45:32;;;;;;;2.13;1.08;;;;;;;20.49;44.18;99340.00;;;;-54
2021/05/04 16:48:30;;;;;;;1.19;1.11;;;;;;;20.48;44.02;99346.14;;;;-51
2021/05/04 16:51:29;;;;;;;2.76;1.12;;;;;;;20.47;43.87;99348.58;;;;-51
2021/05/04 16:54:30;;;;;;;1.09;1.09;;;;;;;20.47;43.80;99345.02;;;;-51
2021/05/04 16:57:29;;;;;;;2.16;1.10;;;;;;;20.45;43.75;99343.08;;;;-53
2021/05/04 17:00:30;;;;;;;1.43;1.12;;;;;;;20.45;43.69;99344.23;;;;-55
2021/05/04 17:03:34;;;;;;;1.21;1.10;;;;;;;20.44;43.62;99339.85;;;;-54
2021/05/04 17:06:33;;;;;;;3.80;1.15;;;;;;;20.43;43.99;99336.69;;;;-52
2021/05/04 17:09:57;;;;;;;1.85;1.02;;;;;;;20.44;44.36;99335.95;;;;-47
2021/05/04 17:12:30;;;;;;;1.02;1.02;;;;;;;20.45;44.38;99333.23;;;;-47
2021/05/04 17:15:31;;;;;;;1.16;1.06;;;;;;;20.45;44.47;99337.78;;;;-50
2021/05/04 17:18:31;;;;;;;1.67;0.99;;;;;;;20.46;44.53;99341.19;;;;-48
2021/05/04 17:21:29;;;;;;;1.25;1.13;;;;;;;20.48;44.64;99339.20;;;;-47
2021/05/04 17:24:29;;;;;;;1.19;1.09;;;;;;;20.48;44.52;99335.78;;;;-55
2021/05/04 17:27:29;;;;;;;2.49;1.15;;;;;;;20.49;44.56;99345.31;;;;-57
2021/05/04 17:30:29;;;;;;;1.60;1.10;;;;;;;20.49;44.66;99350.27;;;;-56
2021/05/04 17:33:29;;;;;;;1.11;1.04;;;;;;;20.50;44.53;99349.69;;;;-51
2021/05/04 17:36:29;;;;;;;1.15;1.03;;;;;;;20.50;44.63;99350.07;;;;-51
2021/05/04 17:39:29;;;;;;;1.96;1.14;;;;;;;20.51;44.58;99358.39;;;;-52
2021/05/04 17:42:29;;;;;;;1.20;1.10;;;;;;;20.51;44.69;99349.00;;;;-51
2021/05/04 17:45:31;;;;;;;1.66;0.95;;;;;;;20.51;44.63;99348.19;;;;-52
2021/05/04 17:48:29;;;;;;;1.40;0.98;;;;;;;20.53;44.59;99349.97;;;;-51